Time;durP1;ratioP1;P1;durP2;ratioP2;P2;SDS_P1;SDS_P2;PMS_P1;PMS_P2;Temp;Humidity;BMP_temperature;BMP_pressure;BME280_temperature;BME280_humidity;BME280_pressure;Samples;Min_cycle;Max_cycle;Signal;HPM_P1;HPM_P2
2021/06/09 00:01:59;;;;;;;8.65;5.15;;;;;;;;;;5125976;27;20403;-73
2021/06/09 00:05:21;;;;;;;8.65;4.43;;;;;;;;;;5126633;27;20376;-74
2021/06/09 00:07:47;;;;;;;8.90;3.60;;;;;;;;;;5108931;28;20114;-74
2021/06/09 00:11:55;;;;;;;10.45;5.78;;;;;;;;;;5133285;27;20215;-74
2021/06/09 00:14:23;;;;;;;7.50;5.00;;;;;;;;;;5130622;28;20028;-74
2021/06/09 00:20:57;;;;;;;7.97;5.35;;;;;;;;;;5125979;27;20385;-72
2021/06/09 00:23:29;;;;;;;9.82;5.60;;;;;;;;;;5110506;28;20092;-72
2021/06/09 00:25:57;;;;;;;10.02;6.55;;;;;;;;;;5109463;28;20024;-72
2021/06/09 00:28:23;;;;;;;12.13;6.30;;;;;;;;;;5108944;28;20046;-73
2021/06/09 00:31:14;;;;;;;9.52;5.50;;;;;;;;;;5126366;27;20867;-73
2021/06/09 00:39:09;;;;;;;8.65;5.40;;;;;;;;;;5126326;27;20238;-73
2021/06/09 00:41:36;;;;;;;9.32;5.60;;;;;;;;;;5110533;28;20047;-74
2021/06/09 00:44:04;;;;;;;7.60;4.68;;;;;;;;;;5108879;28;20020;-75
2021/06/09 00:46:37;;;;;;;9.30;5.35;;;;;;;;;;5109340;28;20114;-73
2021/06/09 00:49:03;;;;;;;;;;;;;;;;;;5110842;28;20076;-74
2021/06/09 00:51:29;;;;;;;8.15;5.03;;;;;;;;;;5110335;28;19908;-74
2021/06/09 00:55:12;;;;;;;8.10;4.70;;;;;;;;;;5126357;27;20872;-73
2021/06/09 00:57:40;;;;;;;11.13;4.63;;;;;;;;;;5108848;28;20453;-73
2021/06/09 01:00:15;;;;;;;9.05;5.10;;;;;;;;;;5109180;28;20058;-73
2021/06/09 01:02:41;;;;;;;8.98;4.72;;;;;;;;;;5110914;28;20047;-73
2021/06/09 01:05:41;;;;;;;11.77;6.03;;;;;;;;;;5129978;27;20119;-73
2021/06/09 01:09:21;;;;;;;9.20;5.95;;;;;;;;;;5126278;27;20861;-73
2021/06/09 01:14:56;;;;;;;11.77;5.85;;;;;;;;;;5129943;27;20139;-72
2021/06/09 01:17:23;;;;;;;8.52;5.30;;;;;;;;;;5129305;28;20398;-72
2021/06/09 01:19:49;;;;;;;7.88;4.68;;;;;;;;;;5130914;28;20069;-72
2021/06/09 01:22:45;;;;;;;7.90;4.40;;;;;;;;;;5126561;27;20381;-72
2021/06/09 01:25:12;;;;;;;10.60;5.80;;;;;;;;;;5110273;28;20490;-72
2021/06/09 01:29:51;;;;;;;8.27;5.00;;;;;;;;;;5133345;27;20470;-73
2021/06/09 01:32:17;;;;;;;6.90;4.40;;;;;;;;;;5130628;28;20035;-72
2021/06/09 01:34:44;;;;;;;6.43;4.13;;;;;;;;;;5112770;28;20026;-72
2021/06/09 01:37:10;;;;;;;8.45;4.07;;;;;;;;;;5130916;28;20106;-73
2021/06/09 01:42:50;;;;;;;7.68;4.50;;;;;;;;;;5126448;27;20864;-72
2021/06/09 01:45:24;;;;;;;9.05;5.70;;;;;;;;;;5108994;28;20051;-73
2021/06/09 01:48:33;;;;;;;9.48;5.10;;;;;;;;;;5150550;27;20688;-72
2021/06/09 01:55:00;;;;;;;7.20;4.05;;;;;;;;;;5126311;27;20392;-73
2021/06/09 01:57:26;;;;;;;6.80;4.10;;;;;;;;;;5110406;28;20043;-73
2021/06/09 01:59:53;;;;;;;8.52;4.60;;;;;;;;;;5110082;28;20024;-73
2021/06/09 02:03:31;;;;;;;9.10;5.43;;;;;;;;;;5126410;27;20385;-73
2021/06/09 02:05:57;;;;;;;6.72;4.32;;;;;;;;;;5110552;28;20106;-73
2021/06/09 02:08:24;;;;;;;6.45;4.10;;;;;;;;;;5108727;28;20024;-73
2021/06/09 02:10:50;;;;;;;8.00;5.13;;;;;;;;;;5110418;28;20471;-73
2021/06/09 02:13:18;;;;;;;7.95;4.57;;;;;;;;;;5110453;28;20028;-73
2021/06/09 02:15:45;;;;;;;9.25;4.78;;;;;;;;;;5109921;28;20024;-73
2021/06/09 02:18:13;;;;;;;8.77;5.50;;;;;;;;;;5109009;28;20460;-72
2021/06/09 02:21:35;;;;;;;8.13;4.00;;;;;;;;;;5126101;27;20380;-72
2021/06/09 02:24:03;;;;;;;7.82;4.68;;;;;;;;;;5110727;28;20030;-72
2021/06/09 02:26:29;;;;;;;9.43;5.10;;;;;;;;;;5110587;28;20470;-72
2021/06/09 02:28:57;;;;;;;9.32;4.90;;;;;;;;;;5110006;28;20031;-72
2021/06/09 02:31:24;;;;;;;11.27;4.97;;;;;;;;;;5110361;28;20031;-72
2021/06/09 02:37:54;;;;;;;12.90;6.18;;;;;;;;;;5126415;27;20388;-74
2021/06/09 02:40:21;;;;;;;16.23;8.77;;;;;;;;;;5110509;28;20483;-72
2021/06/09 02:42:48;;;;;;;15.52;7.75;;;;;;;;;;5110268;28;20027;-72
2021/06/09 02:47:00;;;;;;;11.13;6.68;;;;;;;;;;5126514;27;20468;-75
2021/06/09 02:49:28;;;;;;;13.75;6.95;;;;;;;;;;5108800;28;20074;-73
2021/06/09 02:52:17;;;;;;;12.25;5.15;;;;;;;;;;5110499;28;20046;-73
2021/06/09 02:54:47;;;;;;;10.73;5.45;;;;;;;;;;5108628;28;20406;-73
2021/06/09 02:57:23;;;;;;;9.75;4.80;;;;;;;;;;5108709;28;20027;-73
2021/06/09 02:59:58;;;;;;;7.57;4.60;;;;;;;;;;5109073;28;20020;-72
2021/06/09 03:02:27;;;;;;;9.88;4.40;;;;;;;;;;5110312;28;20024;-72
2021/06/09 03:04:55;;;;;;;10.55;5.72;;;;;;;;;;5108702;28;20027;-72
2021/06/09 03:11:42;;;;;;;16.25;8.57;;;;;;;;;;5125861;27;20378;-72
2021/06/09 03:18:37;;;;;;;13.05;6.65;;;;;;;;;;5125846;27;20875;-72
2021/06/09 03:21:06;;;;;;;13.50;6.70;;;;;;;;;;5109252;28;20426;-72
2021/06/09 03:24:02;;;;;;;13.40;7.72;;;;;;;;;;5126105;27;20384;-72
2021/06/09 03:26:43;;;;;;;14.95;6.43;;;;;;;;;;5126497;27;20384;-72
2021/06/09 03:29:12;;;;;;;16.27;7.03;;;;;;;;;;5110410;28;20028;-72
2021/06/09 03:31:43;;;;;;;16.77;7.35;;;;;;;;;;5110021;28;20020;-72
2021/06/09 03:38:53;;;;;;;15.55;6.97;;;;;;;;;;5126101;27;20400;-73
2021/06/09 03:41:20;;;;;;;11.75;6.18;;;;;;;;;;5109334;28;20051;-73
2021/06/09 03:51:15;;;;;;;10.90;6.18;;;;;;;;;;5126335;27;20384;-73
2021/06/09 03:53:41;;;;;;;18.17;7.10;;;;;;;;;;5110095;28;20020;-73
2021/06/09 03:56:08;;;;;;;10.73;6.05;;;;;;;;;;5110497;28;20016;-74
2021/06/09 03:58:54;;;;;;;12.02;5.90;;;;;;;;;;5126032;27;20369;-73
2021/06/09 04:01:21;;;;;;;9.57;5.80;;;;;;;;;;5109241;28;20031;-73
2021/06/09 04:03:47;;;;;;;10.95;5.55;;;;;;;;;;5109238;28;20089;-73
2021/06/09 04:07:35;;;;;;;12.25;5.35;;;;;;;;;;5126366;27;20741;-73
2021/06/09 04:10:48;;;;;;;11.52;5.07;;;;;;;;;;5126480;27;20404;-73
2021/06/09 04:13:15;;;;;;;8.23;4.20;;;;;;;;;;5110145;28;20028;-73
2021/06/09 04:15:42;;;;;;;8.02;4.63;;;;;;;;;;5111349;28;20024;-72
2021/06/09 04:18:09;;;;;;;8.98;4.82;;;;;;;;;;5109304;28;20028;-72
2021/06/09 04:21:09;;;;;;;10.23;5.40;;;;;;;;;;5126020;27;20380;-72
2021/06/09 04:23:36;;;;;;;8.95;4.60;;;;;;;;;;5110520;28;20032;-73
2021/06/09 04:28:10;;;;;;;10.75;4.55;;;;;;;;;;5126168;27;20380;-73
2021/06/09 04:30:37;;;;;;;10.32;5.28;;;;;;;;;;5109117;28;20059;-73
2021/06/09 04:33:45;;;;;;;7.85;4.78;;;;;;;;;;5126400;27;20385;-73
2021/06/09 04:38:34;;;;;;;10.18;4.55;;;;;;;;;;5126317;27;20741;-73
2021/06/09 04:41:16;;;;;;;15.55;14.32;;;;;;;;;;5125857;27;21033;-74
2021/06/09 04:44:18;;;;;;;71.18;67.57;;;;;;;;;;5126371;27;20375;-73
2021/06/09 04:46:44;;;;;;;44.30;41.75;;;;;;;;;;5110741;28;20028;-73
2021/06/09 04:49:10;;;;;;;232.65;218.77;;;;;;;;;;5110089;28;20471;-73
2021/06/09 04:51:37;;;;;;;465.60;423.65;;;;;;;;;;5109201;28;20048;-74
2021/06/09 04:54:05;;;;;;;378.70;352.48;;;;;;;;;;5110484;28;20486;-73
2021/06/09 04:56:36;;;;;;;279.10;263.23;;;;;;;;;;5108696;28;20371;-73
2021/06/09 04:59:03;;;;;;;461.58;423.92;;;;;;;;;;5110219;28;20487;-73
2021/06/09 05:02:22;;;;;;;510.17;460.08;;;;;;;;;;5126025;27;20388;-73
2021/06/09 05:06:56;;;;;;;517.65;466.33;;;;;;;;;;5126447;27;20369;-65
2021/06/09 05:09:23;;;;;;;609.00;523.08;;;;;;;;;;5109997;28;20032;-66
2021/06/09 05:12:03;;;;;;;14.00;7.75;;;;;;;;;;5107785;28;20480;-65
2021/06/09 05:14:32;;;;;;;79.00;74.95;;;;;;;;;;5108986;28;20024;-65
2021/06/09 05:17:44;;;;;;;14.68;7.75;;;;;;;;;;5125401;27;20864;-65
2021/06/09 05:21:55;;;;;;;8.88;5.28;;;;;;;;;;5126081;27;20857;-66
2021/06/09 05:24:25;;;;;;;670.75;549.28;;;;;;;;;;5109772;28;20028;-65
2021/06/09 05:27:53;;;;;;;567.13;505.40;;;;;;;;;;5126227;27;20737;-67
2021/06/09 05:32:14;;;;;;;15.82;8.77;;;;;;;;;;5125081;27;20463;-66
2021/06/09 05:36:12;;;;;;;8.30;5.50;;;;;;;;;;5124186;27;20388;-65
2021/06/09 05:40:18;;;;;;;676.97;574.65;;;;;;;;;;5126168;27;20376;-65
2021/06/09 05:42:45;;;;;;;790.78;617.53;;;;;;;;;;5109873;28;20031;-65
2021/06/09 05:46:08;;;;;;;802.97;614.42;;;;;;;;;;5126076;27;20405;-66
2021/06/09 05:50:11;;;;;;;713.72;612.28;;;;;;;;;;5126051;27;20384;-65
2021/06/09 05:52:38;;;;;;;760.92;602.80;;;;;;;;;;5109980;28;20476;-66
2021/06/09 05:55:18;;;;;;;767.75;601.40;;;;;;;;;;5126003;27;20392;-65
2021/06/09 05:57:44;;;;;;;693.88;585.45;;;;;;;;;;5110114;28;20035;-69
2021/06/09 06:00:11;;;;;;;10.18;5.72;;;;;;;;;;5108697;28;20487;-69
2021/06/09 06:02:38;;;;;;;774.83;588.97;;;;;;;;;;5108900;28;20101;-71
2021/06/09 06:05:07;;;;;;;763.85;600.63;;;;;;;;;;5109045;28;20479;-71
2021/06/09 06:07:34;;;;;;;748.38;619.55;;;;;;;;;;5109523;28;20498;-70
2021/06/09 06:10:00;;;;;;;743.53;598.10;;;;;;;;;;5110050;28;20016;-69
2021/06/09 06:12:45;;;;;;;773.58;610.00;;;;;;;;;;5119456;27;20396;-71
2021/06/09 06:15:12;;;;;;;8.15;4.95;;;;;;;;;;5106854;28;20543;-72
2021/06/09 06:18:08;;;;;;;7.93;4.47;;;;;;;;;;5124940;27;20384;-71
2021/06/09 06:20:55;;;;;;;42.97;40.47;;;;;;;;;;5125681;27;20458;-69
2021/06/09 06:23:22;;;;;;;7.63;5.05;;;;;;;;;;5109545;28;20069;-69
2021/06/09 06:25:49;;;;;;;213.80;181.13;;;;;;;;;;5108591;28;20020;-73
2021/06/09 06:29:41;;;;;;;8.93;5.13;;;;;;;;;;5124652;27;20374;-71
2021/06/09 06:36:51;;;;;;;8.43;3.78;;;;;;;;;;5125994;27;20849;-70
2021/06/09 06:39:17;;;;;;;5.97;3.88;;;;;;;;;;5109614;28;20494;-70
2021/06/09 06:41:43;;;;;;;8.23;5.03;;;;;;;;;;5106927;28;20020;-72
2021/06/09 06:44:11;;;;;;;9.70;4.68;;;;;;;;;;5109964;28;20440;-72
2021/06/09 06:46:37;;;;;;;6.68;3.92;;;;;;;;;;5110069;28;20028;-73
2021/06/09 06:49:03;;;;;;;8.05;3.92;;;;;;;;;;5106542;28;20030;-72
2021/06/09 06:51:30;;;;;;;9.48;3.15;;;;;;;;;;5106807;28;20105;-71
2021/06/09 06:53:56;;;;;;;605.92;545.83;;;;;;;;;;5107085;28;20024;-70
2021/06/09 06:56:24;;;;;;;277.70;248.70;;;;;;;;;;5106299;28;20411;-72
2021/06/09 06:58:53;;;;;;;42.88;38.13;;;;;;;;;;5109253;28;20031;-71
2021/06/09 07:02:57;;;;;;;5.47;3.08;;;;;;;;;;5125708;27;20580;-72
2021/06/09 07:05:25;;;;;;;6.15;3.58;;;;;;;;;;5105339;28;20031;-72
2021/06/09 07:07:53;;;;;;;6.35;3.38;;;;;;;;;;5084893;28;20107;-71
2021/06/09 07:10:21;;;;;;;6.88;4.10;;;;;;;;;;5083687;28;20024;-70
2021/06/09 07:13:48;;;;;;;48.13;33.40;;;;;;;;;;5096521;27;20400;-70
2021/06/09 07:16:15;;;;;;;8.55;4.45;;;;;;;;;;5078981;28;20034;-70
2021/06/09 07:18:45;;;;;;;10.43;7.22;;;;;;;;;;5075149;28;20040;-70
2021/06/09 07:21:13;;;;;;;10.18;5.85;;;;;;;;;;5079702;28;20055;-71
2021/06/09 07:23:43;;;;;;;43.15;25.65;;;;;;;;;;5079529;28;20031;-70
2021/06/09 07:27:03;;;;;;;6.07;3.20;;;;;;;;;;5120736;27;20438;-71
2021/06/09 07:29:30;;;;;;;6.95;3.35;;;;;;;;;;5107139;28;20027;-73
2021/06/09 07:31:56;;;;;;;4.55;3.00;;;;;;;;;;5108460;28;20436;-74
2021/06/09 07:34:23;;;;;;;6.75;3.53;;;;;;;;;;5108666;28;20034;-72
2021/06/09 07:37:12;;;;;;;5.25;3.53;;;;;;;;;;5105001;27;20923;-72
2021/06/09 07:40:58;;;;;;;245.63;218.63;;;;;;;;;;5114554;27;20385;-72
2021/06/09 07:43:26;;;;;;;3.97;2.28;;;;;;;;;;5082754;28;20472;-70
2021/06/09 07:45:53;;;;;;;3.67;2.60;;;;;;;;;;5071848;28;20032;-70
2021/06/09 07:48:22;;;;;;;12.43;7.22;;;;;;;;;;5087727;28;20025;-70
2021/06/09 07:51:45;;;;;;;4.78;2.20;;;;;;;;;;5125335;27;20384;-73
2021/06/09 07:54:13;;;;;;;4.07;2.30;;;;;;;;;;5108543;28;20032;-72
2021/06/09 07:56:40;;;;;;;3.80;2.05;;;;;;;;;;5109649;28;20495;-72
2021/06/09 08:02:13;;;;;;;2.75;2.00;;;;;;;;;;5125200;27;20365;-71
2021/06/09 08:04:39;;;;;;;503.38;451.48;;;;;;;;;;5106756;28;20425;-71
2021/06/09 08:07:05;;;;;;;129.48;115.60;;;;;;;;;;5108339;28;20099;-73
2021/06/09 08:09:32;;;;;;;422.55;386.33;;;;;;;;;;5107209;28;20387;-72
2021/06/09 08:13:06;;;;;;;85.07;79.30;;;;;;;;;;5121667;27;20143;-71
2021/06/09 08:15:32;;;;;;;4.68;2.03;;;;;;;;;;5105293;28;20036;-72
2021/06/09 08:17:59;;;;;;;4.38;2.72;;;;;;;;;;5102930;28;20028;-71
2021/06/09 08:20:26;;;;;;;5.28;2.30;;;;;;;;;;5106298;28;20476;-71
2021/06/09 08:22:52;;;;;;;4.82;2.75;;;;;;;;;;5107733;28;20036;-72
2021/06/09 08:25:22;;;;;;;5.07;2.67;;;;;;;;;;5106988;28;20063;-72
2021/06/09 08:27:49;;;;;;;2.97;2.03;;;;;;;;;;5109329;28;20076;-73
2021/06/09 08:32:04;;;;;;;3.17;2.05;;;;;;;;;;5106891;27;20120;-72
2021/06/09 08:35:30;;;;;;;4.10;1.98;;;;;;;;;;5123418;27;20143;-71
2021/06/09 08:39:26;;;;;;;5.40;1.75;;;;;;;;;;5123137;27;20373;-72
2021/06/09 08:41:54;;;;;;;3.42;1.95;;;;;;;;;;5105262;28;20442;-72
2021/06/09 08:44:21;;;;;;;3.75;1.90;;;;;;;;;;5106475;28;20360;-74
2021/06/09 08:46:47;;;;;;;3.30;1.98;;;;;;;;;;5105336;28;20384;-73
2021/06/09 08:49:16;;;;;;;3.65;2.20;;;;;;;;;;5105015;28;20379;-71
2021/06/09 08:51:43;;;;;;;2.45;1.83;;;;;;;;;;5104301;28;20035;-73
2021/06/09 08:54:09;;;;;;;3.38;2.00;;;;;;;;;;5109077;28;20035;-72
2021/06/09 08:56:37;;;;;;;4.20;1.65;;;;;;;;;;5109409;28;20032;-73
2021/06/09 08:59:03;;;;;;;4.38;2.53;;;;;;;;;;5109284;28;20091;-72
2021/06/09 09:01:32;;;;;;;347.98;318.17;;;;;;;;;;5107693;28;20024;-73
2021/06/09 09:03:58;;;;;;;6.03;2.55;;;;;;;;;;5093276;28;20042;-74
2021/06/09 09:06:24;;;;;;;35.47;20.38;;;;;;;;;;5088454;28;20085;-75
2021/06/09 09:08:53;;;;;;;4.13;1.95;;;;;;;;;;5103782;28;20080;-72
2021/06/09 09:11:20;;;;;;;2.20;1.38;;;;;;;;;;5108447;28;20012;-73
2021/06/09 09:13:46;;;;;;;2.63;1.58;;;;;;;;;;5088729;28;20035;-72
2021/06/09 09:16:12;;;;;;;3.67;1.70;;;;;;;;;;5086599;28;20581;-72
2021/06/09 09:18:43;;;;;;;3.30;1.63;;;;;;;;;;5086925;28;20112;-71
2021/06/09 09:21:10;;;;;;;6.55;2.20;;;;;;;;;;5086663;28;20013;-73
2021/06/09 09:23:54;;;;;;;81.75;63.20;;;;;;;;;;5123355;27;20838;-72
2021/06/09 09:26:22;;;;;;;6.57;1.88;;;;;;;;;;5106925;28;20055;-72
2021/06/09 09:28:48;;;;;;;4.75;2.30;;;;;;;;;;5108185;28;20516;-74
2021/06/09 09:31:20;;;;;;;2.90;1.85;;;;;;;;;;5107681;28;20020;-72
2021/06/09 09:33:46;;;;;;;2.45;1.70;;;;;;;;;;5107050;28;20059;-72
2021/06/09 09:36:26;;;;;;;2.35;1.60;;;;;;;;;;5107818;28;20035;-72
2021/06/09 09:38:52;;;;;;;3.47;1.70;;;;;;;;;;5107823;28;20015;-71
2021/06/09 09:42:17;;;;;;;2.25;1.58;;;;;;;;;;5123222;27;20381;-73
2021/06/09 09:44:44;;;;;;;2.95;1.88;;;;;;;;;;5085959;28;20025;-73
2021/06/09 09:47:23;;;;;;;4.97;1.80;;;;;;;;;;5081938;28;20042;-75
2021/06/09 09:50:38;;;;;;;6.07;2.60;;;;;;;;;;5121964;27;20380;-74
2021/06/09 09:53:24;;;;;;;10.52;2.20;;;;;;;;;;5108453;28;20031;-73
2021/06/09 09:56:03;;;;;;;3.78;1.55;;;;;;;;;;5108541;28;20081;-73
2021/06/09 09:58:30;;;;;;;2.80;1.65;;;;;;;;;;5106214;28;20020;-72
2021/06/09 10:01:16;;;;;;;4.35;1.77;;;;;;;;;;5107938;28;20028;-73
2021/06/09 10:03:44;;;;;;;2.20;1.35;;;;;;;;;;5107712;28;20060;-71
2021/06/09 10:06:17;;;;;;;1.80;1.23;;;;;;;;;;5101277;28;20094;-72
2021/06/09 10:08:43;;;;;;;2.35;1.40;;;;;;;;;;5085751;28;20028;-73
2021/06/09 10:11:10;;;;;;;4.47;1.75;;;;;;;;;;5082400;28;20064;-71
2021/06/09 10:13:37;;;;;;;5.45;1.35;;;;;;;;;;5090169;28;20103;-72
2021/06/09 10:16:03;;;;;;;3.05;1.58;;;;;;;;;;5088558;28;20032;-69
2021/06/09 10:18:29;;;;;;;2.40;1.70;;;;;;;;;;5089032;28;20048;-72
2021/06/09 10:20:56;;;;;;;2.75;1.50;;;;;;;;;;5103542;28;20028;-71
2021/06/09 10:23:32;;;;;;;3.35;1.90;;;;;;;;;;5088709;28;20024;-71
2021/06/09 10:26:09;;;;;;;3.40;1.60;;;;;;;;;;5087954;28;20020;-72
2021/06/09 10:28:54;;;;;;;5.05;1.75;;;;;;;;;;5089187;28;20028;-72
2021/06/09 10:31:20;;;;;;;2.30;1.55;;;;;;;;;;5089168;28;20472;-74
2021/06/09 10:33:47;;;;;;;3.92;1.88;;;;;;;;;;5087805;28;20020;-72
2021/06/09 10:36:14;;;;;;;3.15;1.40;;;;;;;;;;5087901;28;20039;-74
2021/06/09 10:38:40;;;;;;;3.20;1.52;;;;;;;;;;5099111;28;20532;-70
2021/06/09 10:41:07;;;;;;;3.50;1.70;;;;;;;;;;5104759;28;20032;-73
2021/06/09 10:43:34;;;;;;;4.60;1.77;;;;;;;;;;5102852;28;20391;-72
2021/06/09 10:46:00;;;;;;;2.42;1.58;;;;;;;;;;5105030;28;20024;-72
2021/06/09 10:48:28;;;;;;;3.42;2.00;;;;;;;;;;5091749;28;20024;-72
2021/06/09 10:50:55;;;;;;;3.72;1.67;;;;;;;;;;5083527;28;20028;-73
2021/06/09 10:53:21;;;;;;;2.05;1.75;;;;;;;;;;5097249;28;20027;-72
2021/06/09 10:55:48;;;;;;;3.08;1.70;;;;;;;;;;5087326;28;20435;-73
2021/06/09 10:58:14;;;;;;;2.95;1.63;;;;;;;;;;5089105;28;20031;-72
2021/06/09 11:00:41;;;;;;;2.40;1.40;;;;;;;;;;5094385;28;20368;-71
2021/06/09 11:03:07;;;;;;;3.95;1.98;;;;;;;;;;5094048;28;20030;-73
2021/06/09 11:05:36;;;;;;;2.13;1.35;;;;;;;;;;5095986;28;20051;-74
2021/06/09 11:08:07;;;;;;;2.28;1.63;;;;;;;;;;5093946;28;20022;-72
2021/06/09 11:10:37;;;;;;;2.92;1.52;;;;;;;;;;5095612;28;20432;-71
2021/06/09 11:13:05;;;;;;;2.05;1.48;;;;;;;;;;5089362;28;20395;-71
2021/06/09 11:15:32;;;;;;;2.20;1.50;;;;;;;;;;5085475;28;20036;-70
2021/06/09 11:18:00;;;;;;;2.17;1.30;;;;;;;;;;5095353;28;20016;-71
2021/06/09 11:20:28;;;;;;;2.40;1.65;;;;;;;;;;5095555;28;20020;-69
2021/06/09 11:22:59;;;;;;;2.65;1.40;;;;;;;;;;5094708;28;20072;-71
2021/06/09 11:25:28;;;;;;;2.65;1.60;;;;;;;;;;5091606;28;20016;-71
2021/06/09 11:28:06;;;;;;;6.63;1.80;;;;;;;;;;5084819;28;20020;-71
2021/06/09 11:30:32;;;;;;;2.50;1.60;;;;;;;;;;5094564;28;20123;-71
2021/06/09 11:33:00;;;;;;;3.00;1.65;;;;;;;;;;5091780;28;20027;-71
2021/06/09 11:35:45;;;;;;;2.17;1.40;;;;;;;;;;5093737;28;20483;-71
2021/06/09 11:38:14;;;;;;;2.03;1.45;;;;;;;;;;5094677;28;20028;-71
2021/06/09 11:40:58;;;;;;;2.70;1.75;;;;;;;;;;5093696;28;20349;-71
2021/06/09 11:43:26;;;;;;;2.67;1.63;;;;;;;;;;5086741;28;20107;-71
2021/06/09 11:45:54;;;;;;;2.45;1.63;;;;;;;;;;5093164;28;20020;-71
2021/06/09 11:48:24;;;;;;;4.07;1.42;;;;;;;;;;5091433;28;20115;-70
2021/06/09 11:50:52;;;;;;;2.45;1.55;;;;;;;;;;5089739;28;20035;-72
2021/06/09 11:53:36;;;;;;;1.88;1.45;;;;;;;;;;5091363;28;20031;-71
2021/06/09 11:56:22;;;;;;;7.68;2.88;;;;;;;;;;5090283;28;20032;-70
2021/06/09 11:58:50;;;;;;;8.43;2.15;;;;;;;;;;5093838;28;20020;-71
2021/06/09 12:01:18;;;;;;;9.43;2.67;;;;;;;;;;5091449;28;20361;-70
2021/06/09 12:03:45;;;;;;;3.35;1.90;;;;;;;;;;5090975;28;20020;-70
2021/06/09 12:06:16;;;;;;;19.15;2.58;;;;;;;;;;5090767;28;20077;-68
2021/06/09 12:08:43;;;;;;;12.02;3.97;;;;;;;;;;5073976;28;20029;-72
2021/06/09 12:11:09;;;;;;;7.40;2.85;;;;;;;;;;5072446;28;20090;-70
2021/06/09 12:13:36;;;;;;;4.13;2.40;;;;;;;;;;5072178;28;20481;-71
2021/06/09 12:16:21;;;;;;;3.95;2.20;;;;;;;;;;5072710;28;20097;-71
2021/06/09 12:18:48;;;;;;;3.38;1.95;;;;;;;;;;5078093;28;20021;-71
2021/06/09 12:21:17;;;;;;;3.35;1.90;;;;;;;;;;5089208;28;20477;-71
2021/06/09 12:23:53;;;;;;;4.60;2.05;;;;;;;;;;5072402;28;20036;-71
2021/06/09 12:26:20;;;;;;;5.15;2.55;;;;;;;;;;5069959;28;20028;-72
2021/06/09 12:30:51;;;;;;;3.97;2.30;;;;;;;;;;5124518;27;20404;-70
2021/06/09 12:33:17;;;;;;;6.32;2.80;;;;;;;;;;5107231;28;20027;-72
2021/06/09 12:37:07;;;;;;;7.68;3.08;;;;;;;;;;5124348;27;20376;-71
2021/06/09 12:43:09;;;;;;;6.38;2.83;;;;;;;;;;5124251;27;20875;-72
2021/06/09 12:45:37;;;;;;;5.45;2.40;;;;;;;;;;5108517;28;20371;-71
2021/06/09 12:48:10;;;;;;;5.32;2.78;;;;;;;;;;5107675;28;20023;-71
2021/06/09 12:50:39;;;;;;;5.43;2.72;;;;;;;;;;5108418;28;20502;-71
2021/06/09 12:53:10;;;;;;;4.68;2.55;;;;;;;;;;5107000;28;20399;-71
2021/06/09 12:55:37;;;;;;;3.95;2.40;;;;;;;;;;5108278;28;20035;-70
2021/06/09 12:58:05;;;;;;;4.60;2.42;;;;;;;;;;5108821;28;20020;-71
2021/06/09 13:00:32;;;;;;;4.30;2.97;;;;;;;;;;5110002;28;20046;-70
2021/06/09 13:03:09;;;;;;;3.38;1.98;;;;;;;;;;5108853;28;20483;-70
2021/06/09 13:06:18;;;;;;;3.85;2.30;;;;;;;;;;5092240;28;20136;-71
2021/06/09 13:08:46;;;;;;;5.18;3.15;;;;;;;;;;5091818;28;20493;-70
2021/06/09 13:11:28;;;;;;;3.25;1.80;;;;;;;;;;5126328;27;20707;-70
2021/06/09 13:14:42;;;;;;;3.72;1.83;;;;;;;;;;5125946;27;20380;-71
2021/06/09 13:17:09;;;;;;;3.10;1.90;;;;;;;;;;5109040;28;20118;-70
2021/06/09 13:19:36;;;;;;;2.92;1.70;;;;;;;;;;5109229;28;20024;-71
2021/06/09 13:22:04;;;;;;;3.42;1.80;;;;;;;;;;5108864;28;20027;-71
2021/06/09 13:24:34;;;;;;;2.45;1.60;;;;;;;;;;5109117;28;20035;-71
2021/06/09 13:27:01;;;;;;;4.05;1.80;;;;;;;;;;5110642;28;20016;-71
2021/06/09 13:29:32;;;;;;;2.70;1.75;;;;;;;;;;5108625;28;20618;-72
2021/06/09 13:31:59;;;;;;;4.70;1.98;;;;;;;;;;5110175;28;20031;-72
2021/06/09 13:34:26;;;;;;;2.95;1.45;;;;;;;;;;5110153;28;20459;-72
2021/06/09 13:36:58;;;;;;;3.22;1.55;;;;;;;;;;5109687;28;20095;-72
2021/06/09 13:39:26;;;;;;;3.60;2.10;;;;;;;;;;5091988;28;20148;-73
2021/06/09 13:41:52;;;;;;;4.32;2.40;;;;;;;;;;5110015;28;20047;-73
2021/06/09 13:44:19;;;;;;;3.40;1.52;;;;;;;;;;5109454;28;20104;-73
2021/06/09 13:46:47;;;;;;;5.03;1.92;;;;;;;;;;5108602;28;20441;-72
2021/06/09 13:49:13;;;;;;;4.25;1.83;;;;;;;;;;5109754;28;20024;-73
2021/06/09 13:51:44;;;;;;;3.45;1.90;;;;;;;;;;5108022;28;20028;-73
2021/06/09 13:54:10;;;;;;;3.05;1.52;;;;;;;;;;5108405;28;20487;-72
2021/06/09 13:56:42;;;;;;;2.33;1.50;;;;;;;;;;5109325;28;20150;-71
2021/06/09 13:59:17;;;;;;;3.22;1.58;;;;;;;;;;5108670;28;20410;-72
2021/06/09 14:01:45;;;;;;;4.13;1.25;;;;;;;;;;5109704;28;20372;-72
2021/06/09 14:04:16;;;;;;;3.63;1.50;;;;;;;;;;5109411;28;20333;-72
2021/06/09 14:06:42;;;;;;;4.38;1.33;;;;;;;;;;5109363;28;20024;-72
2021/06/09 14:09:13;;;;;;;3.67;1.35;;;;;;;;;;5109422;28;20610;-72
2021/06/09 14:11:58;;;;;;;1.38;1.23;;;;;;;;;;5108975;28;20476;-71
2021/06/09 14:14:26;;;;;;;5.43;1.20;;;;;;;;;;5109161;28;20044;-71
2021/06/09 14:17:03;;;;;;;2.97;1.33;;;;;;;;;;5109415;28;20443;-72
2021/06/09 14:19:29;;;;;;;3.95;1.52;;;;;;;;;;5109016;28;20031;-71
2021/06/09 14:21:55;;;;;;;1.83;1.25;;;;;;;;;;5109412;28;20140;-72
2021/06/09 14:24:23;;;;;;;1.25;0.80;;;;;;;;;;5103370;28;20547;-72
2021/06/09 14:26:50;;;;;;;5.35;1.27;;;;;;;;;;5093772;28;20028;-71
2021/06/09 14:29:16;;;;;;;1.20;0.75;;;;;;;;;;5094155;28;20371;-72
2021/06/09 14:31:43;;;;;;;1.02;0.65;;;;;;;;;;5095439;28;20023;-71
2021/06/09 14:37:35;;;;;;;3.05;0.93;;;;;;;;;;5095392;28;20032;-72
2021/06/09 14:39:47;;;;;;;1.35;0.90;;;;;;;;;;5094775;28;20032;-73
2021/06/09 14:42:22;;;;;;;2.13;1.13;;;;;;;;;;5095354;28;20024;-72
2021/06/09 14:44:49;;;;;;;3.95;1.55;;;;;;;;;;5093945;28;20549;-72
2021/06/09 14:47:22;;;;;;;1.63;1.00;;;;;;;;;;5094951;28;20044;-72
2021/06/09 14:49:57;;;;;;;2.13;0.95;;;;;;;;;;5095078;28;20376;-72
2021/06/09 14:52:26;;;;;;;1.95;1.05;;;;;;;;;;5093634;28;20095;-72
2021/06/09 14:54:52;;;;;;;2.60;1.10;;;;;;;;;;5096041;28;20040;-74
2021/06/09 14:57:19;;;;;;;4.07;1.10;;;;;;;;;;5095306;28;20445;-72
2021/06/09 14:59:56;;;;;;;2.83;1.13;;;;;;;;;;5094995;28;20024;-72
2021/06/09 15:02:25;;;;;;;1.33;1.00;;;;;;;;;;5094729;28;20030;-72
2021/06/09 15:04:53;;;;;;;1.75;1.25;;;;;;;;;;5094889;28;20433;-73
2021/06/09 15:07:19;;;;;;;1.75;1.20;;;;;;;;;;5094374;28;20020;-72
2021/06/09 15:09:45;;;;;;;2.95;1.30;;;;;;;;;;5093221;28;20031;-71
2021/06/09 15:12:12;;;;;;;3.70;1.60;;;;;;;;;;5094369;28;20027;-71
2021/06/09 15:14:38;;;;;;;6.90;1.88;;;;;;;;;;5092646;28;20483;-71
2021/06/09 15:17:05;;;;;;;1.55;1.15;;;;;;;;;;5093724;28;20124;-72
2021/06/09 15:19:31;;;;;;;2.85;1.33;;;;;;;;;;5094389;28;20095;-72
2021/06/09 15:21:58;;;;;;;2.65;1.08;;;;;;;;;;5094103;28;20027;-73
2021/06/09 15:24:24;;;;;;;1.27;1.00;;;;;;;;;;5094359;28;20027;-72
2021/06/09 15:26:50;;;;;;;1.52;1.00;;;;;;;;;;5093088;28;20391;-72
2021/06/09 15:29:17;;;;;;;1.20;0.85;;;;;;;;;;5092702;28;20409;-72
2021/06/09 15:31:43;;;;;;;2.67;1.15;;;;;;;;;;5092410;28;20357;-73
2021/06/09 15:34:10;;;;;;;1.95;1.23;;;;;;;;;;5092681;28;20341;-72
2021/06/09 15:36:37;;;;;;;3.45;0.93;;;;;;;;;;5092745;28;20028;-71
2021/06/09 15:39:14;;;;;;;3.08;1.30;;;;;;;;;;5094245;28;20016;-71
2021/06/09 15:41:41;;;;;;;3.38;1.35;;;;;;;;;;5094293;28;20035;-71
2021/06/09 15:44:09;;;;;;;0.80;0.80;;;;;;;;;;5094012;28;20020;-72
2021/06/09 15:46:36;;;;;;;39.28;6.25;;;;;;;;;;5093801;28;20028;-72
2021/06/09 15:49:03;;;;;;;79.22;3.63;;;;;;;;;;5093887;28;20025;-72
2021/06/09 15:51:29;;;;;;;26.85;1.88;;;;;;;;;;5093402;28;20035;-72
2021/06/09 15:53:55;;;;;;;3.20;1.48;;;;;;;;;;5092419;28;20039;-73
2021/06/09 15:56:22;;;;;;;3.30;1.25;;;;;;;;;;5093371;28;20353;-72
2021/06/09 15:58:48;;;;;;;3.63;1.70;;;;;;;;;;5093812;28;20027;-71
2021/06/09 16:01:14;;;;;;;3.88;1.90;;;;;;;;;;5092525;28;20472;-73
2021/06/09 16:03:40;;;;;;;5.68;1.77;;;;;;;;;;5093365;28;20028;-73
2021/06/09 16:06:06;;;;;;;5.95;1.88;;;;;;;;;;5093560;28;20042;-73
2021/06/09 16:08:32;;;;;;;2.50;1.38;;;;;;;;;;5093484;28;20024;-73
2021/06/09 16:10:59;;;;;;;3.55;1.38;;;;;;;;;;5093074;28;20030;-73
2021/06/09 16:13:26;;;;;;;2.95;1.75;;;;;;;;;;5091897;28;20053;-73
2021/06/09 16:15:54;;;;;;;5.22;1.65;;;;;;;;;;5092125;28;20467;-73
2021/06/09 16:18:21;;;;;;;2.25;1.38;;;;;;;;;;5091768;28;20447;-73
2021/06/09 16:20:48;;;;;;;3.88;1.40;;;;;;;;;;5093334;28;20384;-73
2021/06/09 16:23:15;;;;;;;1.80;1.25;;;;;;;;;;5093105;28;20029;-72
2021/06/09 16:25:41;;;;;;;5.57;1.23;;;;;;;;;;5093023;28;20503;-71
2021/06/09 16:28:07;;;;;;;2.15;1.30;;;;;;;;;;5093152;28;20028;-73
2021/06/09 16:30:34;;;;;;;2.65;1.15;;;;;;;;;;5093223;28;20473;-71
2021/06/09 16:33:02;;;;;;;2.60;1.67;;;;;;;;;;5092744;28;20032;-72
2021/06/09 16:35:28;;;;;;;3.80;1.50;;;;;;;;;;5093132;28;20103;-72
2021/06/09 16:37:55;;;;;;;3.53;1.65;;;;;;;;;;5093299;28;20027;-72
2021/06/09 16:40:21;;;;;;;4.28;2.13;;;;;;;;;;5092797;28;20081;-71